createdAt,value
2023-04-27T00:00:01.662Z,95.02
2023-04-27T00:01:01.530Z,95.02
2023-04-27T00:02:01.590Z,95.12
2023-04-27T00:03:01.928Z,95.54
2023-04-27T00:04:01.701Z,95.75
2023-04-27T00:05:01.699Z,96.21
2023-04-27T00:06:01.551Z,96.52
2023-04-27T00:07:01.531Z,96.83
2023-04-27T00:08:01.499Z,96.94
2023-04-27T00:09:01.544Z,96.94
2023-04-27T00:10:01.459Z,96.98
2023-04-27T00:11:01.590Z,96.98
2023-04-27T00:12:01.478Z,96.88
2023-04-27T00:13:01.417Z,96.88
2023-04-27T00:14:01.479Z,96.98
2023-04-27T00:15:01.395Z,96.98
2023-04-27T00:16:01.446Z,96.98
2023-04-27T00:17:01.437Z,97.09
2023-04-27T00:18:01.603Z,97.09
2023-04-27T00:19:01.403Z,97.19
2023-04-27T00:20:01.415Z,97.19
2023-04-27T00:21:01.388Z,97.19
2023-04-27T00:22:01.381Z,97.19
2023-04-27T00:23:01.316Z,97.09
2023-04-27T00:24:01.330Z,97.09
2023-04-27T00:25:01.334Z,97.19
2023-04-27T00:26:01.303Z,96.98
2023-04-27T00:27:01.289Z,96.88
2023-04-27T00:28:01.356Z,96.77
2023-04-27T00:29:01.289Z,96.77
2023-04-27T00:30:01.305Z,96.82
2023-04-27T00:31:01.237Z,97.03
2023-04-27T00:32:01.265Z,97.03
2023-04-27T00:33:01.287Z,97.13
2023-04-27T00:34:01.241Z,97.13
2023-04-27T00:35:01.212Z,97.24
2023-04-27T00:36:01.190Z,97.38
2023-04-27T00:37:01.239Z,97.38
2023-04-27T00:38:01.233Z,97.70
2023-04-27T00:39:01.276Z,98.01
2023-04-27T00:40:01.135Z,98.22
2023-04-27T00:41:01.147Z,98.43
2023-04-27T00:42:01.126Z,98.53
2023-04-27T00:43:01.160Z,98.53
2023-04-27T00:44:01.113Z,98.53
2023-04-27T00:45:01.194Z,98.63
2023-04-27T00:46:01.182Z,98.53
2023-04-27T00:47:01.088Z,98.53
2023-04-27T00:48:01.188Z,98.53
2023-04-27T00:49:01.053Z,98.53
2023-04-27T00:50:01.131Z,98.43
2023-04-27T00:51:01.035Z,98.43
2023-04-27T00:52:01.031Z,98.43
2023-04-27T00:53:01.004Z,98.32
2023-04-27T00:54:01.026Z,98.32
2023-04-27T00:55:01.021Z,98.22
2023-04-27T00:56:01.033Z,98.22
2023-04-27T00:57:01.007Z,98.22
2023-04-27T00:58:00.948Z,98.11
2023-04-27T00:59:00.959Z,97.91
2023-04-27T01:00:01.058Z,97.91
2023-04-27T01:01:00.966Z,97.80
2023-04-27T01:02:01.001Z,97.80
2023-04-27T01:03:01.115Z,97.70
2023-04-27T01:04:01.141Z,97.70
2023-04-27T01:05:00.872Z,97.70
2023-04-27T01:06:00.917Z,97.59
2023-04-27T01:07:00.901Z,97.80
2023-04-27T01:08:00.908Z,97.80
2023-04-27T01:09:00.834Z,97.95
2023-04-27T01:10:00.861Z,97.85
2023-04-27T01:11:00.821Z,97.95
2023-04-27T01:12:00.862Z,97.85
2023-04-27T01:13:00.852Z,97.95
2023-04-27T01:14:00.821Z,97.95
2023-04-27T01:15:00.817Z,98.05
2023-04-27T01:16:00.815Z,98.05
2023-04-27T01:17:00.797Z,97.95
2023-04-27T01:18:00.853Z,97.95
2023-04-27T01:19:00.795Z,97.95
2023-04-27T01:20:00.810Z,97.95
2023-04-27T01:21:00.765Z,97.95
2023-04-27T01:22:00.777Z,97.95
2023-04-27T01:23:00.754Z,98.26
2023-04-27T01:24:00.730Z,98.37
2023-04-27T01:25:00.679Z,98.37
2023-04-27T01:26:00.731Z,98.26
2023-04-27T01:27:00.759Z,98.26
2023-04-27T01:28:00.709Z,98.47
2023-04-27T01:29:00.663Z,98.47
2023-04-27T01:30:00.736Z,98.47
2023-04-27T01:31:00.677Z,98.37
2023-04-27T01:32:01.601Z,98.37
2023-04-27T01:33:00.681Z,98.26
2023-04-27T01:34:00.631Z,98.16
2023-04-27T01:35:00.654Z,98.26
2023-04-27T01:36:00.643Z,98.37
2023-04-27T01:37:00.669Z,98.47
2023-04-27T01:38:00.570Z,98.47
2023-04-27T01:39:00.553Z,98.52
2023-04-27T01:40:00.801Z,98.52
2023-04-27T01:41:00.506Z,98.62
2023-04-27T01:42:00.742Z,98.52
2023-04-27T01:43:00.632Z,98.52
2023-04-27T01:44:00.506Z,98.52
2023-04-27T01:45:00.512Z,98.52
2023-04-27T01:46:00.681Z,98.41
2023-04-27T01:47:00.482Z,98.52
2023-04-27T01:48:00.477Z,98.52
2023-04-27T01:49:00.519Z,98.83
2023-04-27T01:50:00.461Z,98.93
2023-04-27T01:51:00.458Z,99.04
2023-04-27T01:52:00.415Z,99.04
2023-04-27T01:53:00.391Z,99.15
2023-04-27T01:54:00.507Z,99.15
2023-04-27T01:55:00.427Z,99.25
2023-04-27T01:56:00.488Z,99.15
2023-04-27T01:57:00.455Z,99.15
2023-04-27T01:58:00.388Z,99.15
2023-04-27T01:59:00.366Z,99.15
2023-04-27T02:00:00.378Z,99.04
2023-04-27T02:01:00.365Z,99.04
2023-04-27T02:02:00.466Z,99.04
2023-04-27T02:03:00.550Z,98.93
2023-04-27T02:04:00.670Z,98.83
2023-04-27T02:05:00.312Z,98.72
2023-04-27T02:06:00.288Z,98.72
2023-04-27T02:07:00.330Z,98.62
2023-04-27T02:08:00.321Z,98.52
2023-04-27T02:09:00.277Z,98.41
2023-04-27T02:10:00.288Z,98.31
2023-04-27T02:11:00.217Z,98.41
2023-04-27T02:12:00.221Z,98.46
2023-04-27T02:13:00.179Z,98.56
2023-04-27T02:14:00.282Z,98.67
2023-04-27T02:15:00.198Z,98.67
2023-04-27T02:16:00.220Z,98.77
2023-04-27T02:17:00.157Z,98.77
2023-04-27T02:18:00.300Z,98.77
2023-04-27T02:19:00.159Z,98.67
2023-04-27T02:20:00.202Z,98.56
2023-04-27T02:21:00.131Z,98.56
2023-04-27T02:22:00.157Z,98.46
2023-04-27T02:23:00.143Z,98.35
2023-04-27T02:24:00.143Z,98.25
2023-04-27T02:25:00.068Z,98.25
2023-04-27T02:26:00.056Z,98.21
2023-04-27T02:27:00.354Z,98.21
2023-04-27T02:28:00.105Z,98.10
2023-04-27T02:29:00.039Z,97.99
2023-04-27T02:30:00.034Z,97.89
2023-04-27T02:30:59.993Z,97.78
2023-04-27T02:32:00.256Z,97.78
2023-04-27T02:33:00.018Z,97.78
2023-04-27T02:34:00.020Z,97.89
2023-04-27T02:34:59.984Z,97.94
2023-04-27T02:35:59.973Z,97.94
2023-04-27T02:36:59.985Z,97.89
2023-04-27T02:37:59.919Z,97.78
2023-04-27T02:38:59.979Z,97.68
2023-04-27T02:39:59.910Z,97.68
2023-04-27T02:40:59.931Z,97.72
2023-04-27T02:41:59.897Z,97.62
2023-04-27T02:42:59.973Z,97.62
2023-04-27T02:43:59.928Z,97.72
2023-04-27T02:44:59.960Z,97.72
2023-04-27T02:45:59.924Z,97.72
2023-04-27T02:46:59.959Z,97.62
2023-04-27T02:47:59.880Z,97.62
2023-04-27T02:48:59.824Z,97.62
2023-04-27T02:49:59.865Z,97.72
2023-04-27T02:51:00.152Z,97.83
2023-04-27T02:51:59.864Z,97.83
2023-04-27T02:52:59.791Z,97.83
2023-04-27T02:53:59.815Z,97.83
2023-04-27T02:54:59.802Z,97.72
2023-04-27T02:55:59.782Z,97.62
2023-04-27T02:56:59.728Z,97.62
2023-04-27T02:57:59.812Z,97.77
2023-04-27T02:58:59.864Z,97.83
2023-04-27T02:59:59.774Z,97.94
2023-04-27T03:00:59.760Z,97.98
2023-04-27T03:01:59.743Z,97.98
2023-04-27T03:02:59.857Z,98.08
2023-04-27T03:04:00.020Z,98.19
2023-04-27T03:04:59.684Z,98.19
2023-04-27T03:05:59.696Z,98.19
2023-04-27T03:06:59.687Z,98.19
2023-04-27T03:07:59.723Z,98.19
2023-04-27T03:08:59.753Z,98.19
2023-04-27T03:09:59.686Z,98.08
2023-04-27T03:10:59.610Z,97.98
2023-04-27T03:11:59.709Z,97.98
2023-04-27T03:12:59.633Z,97.98
2023-04-27T03:13:59.594Z,97.98
2023-04-27T03:14:59.575Z,98.08
2023-04-27T03:15:59.751Z,98.08
2023-04-27T03:16:59.720Z,98.08
2023-04-27T03:17:59.881Z,98.08
2023-04-27T03:18:59.582Z,97.98
2023-04-27T03:19:59.506Z,97.98
2023-04-27T03:20:59.598Z,97.98
2023-04-27T03:21:59.837Z,97.98
2023-04-27T03:22:59.629Z,97.88
2023-04-27T03:23:59.496Z,97.88
2023-04-27T03:24:59.520Z,97.88
2023-04-27T03:25:59.575Z,97.77
2023-04-27T03:26:59.618Z,97.67
2023-04-27T03:27:59.516Z,97.77
2023-04-27T03:28:59.441Z,97.77
2023-04-27T03:29:59.382Z,97.77
2023-04-27T03:30:59.551Z,97.67
2023-04-27T03:31:59.820Z,97.81
2023-04-27T03:32:59.519Z,97.92
2023-04-27T03:33:59.321Z,98.02
2023-04-27T03:34:59.321Z,98.13
2023-04-27T03:35:59.405Z,98.24
2023-04-27T03:36:59.408Z,98.34
2023-04-27T03:37:59.571Z,98.34
2023-04-27T03:38:59.265Z,98.55
2023-04-27T03:39:59.820Z,98.65
2023-04-27T03:40:59.464Z,98.65
2023-04-27T03:41:59.402Z,98.65
2023-04-27T03:42:59.342Z,98.65
2023-04-27T03:43:59.206Z,98.65
2023-04-27T03:44:59.215Z,98.55
2023-04-27T03:45:59.303Z,98.65
2023-04-27T03:46:59.540Z,98.75
2023-04-27T03:47:59.235Z,98.75
2023-04-27T03:48:59.170Z,98.86
2023-04-27T03:49:59.172Z,99.01
2023-04-27T03:50:59.247Z,98.86
2023-04-27T03:51:59.139Z,98.86
2023-04-27T03:52:59.224Z,98.75
2023-04-27T03:53:59.103Z,98.65
2023-04-27T03:54:59.165Z,98.65
2023-04-27T03:55:59.572Z,98.69
2023-04-27T03:56:59.140Z,98.69
2023-04-27T03:57:59.092Z,98.69
2023-04-27T03:58:59.100Z,98.80
2023-04-27T03:59:59.078Z,98.80
2023-04-27T04:00:59.037Z,98.69
2023-04-27T04:02:01.137Z,98.80
2023-04-27T04:02:59.145Z,98.69
2023-04-27T04:03:59.239Z,98.69
2023-04-27T04:04:59.175Z,98.69
2023-04-27T04:05:59.035Z,98.69
2023-04-27T04:06:58.989Z,98.69
2023-04-27T04:07:58.977Z,98.59
2023-04-27T04:08:58.974Z,98.59
2023-04-27T04:09:58.971Z,98.59
2023-04-27T04:10:58.937Z,98.49
2023-04-27T04:11:58.913Z,98.49
2023-04-27T04:12:58.998Z,98.59
2023-04-27T04:13:58.898Z,98.59
2023-04-27T04:14:58.911Z,98.59
2023-04-27T04:15:58.925Z,98.49
2023-04-27T04:16:58.885Z,98.49
2023-04-27T04:17:58.934Z,98.49
2023-04-27T04:18:58.857Z,98.49
2023-04-27T04:19:58.850Z,98.38
2023-04-27T04:20:58.847Z,98.38
2023-04-27T04:21:58.867Z,98.38
2023-04-27T04:22:58.821Z,98.38
2023-04-27T04:23:58.820Z,98.38
2023-04-27T04:24:58.816Z,98.38
2023-04-27T04:25:58.787Z,98.49
2023-04-27T04:26:58.824Z,98.49
2023-04-27T04:27:58.743Z,98.49
2023-04-27T04:28:58.773Z,98.49
2023-04-27T04:29:58.765Z,98.49
2023-04-27T04:30:58.780Z,98.49
2023-04-27T04:31:58.714Z,98.49
2023-04-27T04:32:58.761Z,98.49
2023-04-27T04:33:58.759Z,98.49
2023-04-27T04:34:58.722Z,98.59
2023-04-27T04:35:58.693Z,98.59
2023-04-27T04:36:58.707Z,98.69
2023-04-27T04:37:58.649Z,98.69
2023-04-27T04:38:58.680Z,98.69
2023-04-27T04:39:58.635Z,98.69
2023-04-27T04:40:58.657Z,98.59
2023-04-27T04:41:58.624Z,98.59
2023-04-27T04:42:58.740Z,98.59
2023-04-27T04:43:58.589Z,98.44
2023-04-27T04:44:58.618Z,98.44
2023-04-27T04:45:58.603Z,98.34
2023-04-27T04:46:58.586Z,98.34
2023-04-27T04:47:58.679Z,98.34
2023-04-27T04:48:58.590Z,98.24
2023-04-27T04:49:58.549Z,98.24
2023-04-27T04:50:58.589Z,98.24
2023-04-27T04:51:58.558Z,98.24
2023-04-27T04:52:58.498Z,98.44
2023-04-27T04:53:59.834Z,98.55
2023-04-27T04:54:58.485Z,98.55
2023-04-27T04:55:58.486Z,98.65
2023-04-27T04:56:58.506Z,98.65
2023-04-27T04:57:58.493Z,98.65
2023-04-27T04:58:58.454Z,98.75
2023-04-27T04:59:58.427Z,98.75
2023-04-27T05:00:58.413Z,98.86
2023-04-27T05:01:58.483Z,98.86
2023-04-27T05:02:58.542Z,99.07
2023-04-27T05:03:58.605Z,99.18
2023-04-27T05:04:58.506Z,99.18
2023-04-27T05:05:58.361Z,99.18
2023-04-27T05:06:58.373Z,99.28
2023-04-27T05:07:58.387Z,99.28
2023-04-27T05:08:58.361Z,99.28
2023-04-27T05:09:58.333Z,99.28
2023-04-27T05:10:58.346Z,99.28
2023-04-27T05:11:58.335Z,99.13
2023-04-27T05:12:58.351Z,99.24
2023-04-27T05:13:58.298Z,99.24
2023-04-27T05:14:58.283Z,99.13
2023-04-27T05:15:58.343Z,99.13
2023-04-27T05:16:58.262Z,99.02
2023-04-27T05:17:58.270Z,98.98
2023-04-27T05:18:58.250Z,98.98
2023-04-27T05:19:58.236Z,98.98
2023-04-27T05:20:58.260Z,99.08
2023-04-27T05:21:58.260Z,99.08
2023-04-27T05:22:58.267Z,99.08
2023-04-27T05:23:58.191Z,99.08
2023-04-27T05:24:58.232Z,99.08
2023-04-27T05:25:58.196Z,99.08
2023-04-27T05:26:59.249Z,99.08
2023-04-27T05:27:58.152Z,99.29
2023-04-27T05:28:58.642Z,99.51
2023-04-27T05:29:58.164Z,99.46
2023-04-27T05:30:58.173Z,99.77
2023-04-27T05:31:58.411Z,99.99
2023-04-27T05:32:58.157Z,99.99
2023-04-27T05:33:58.100Z,99.99
2023-04-27T05:34:58.145Z,99.99
2023-04-27T05:35:58.081Z,99.99
2023-04-27T05:36:58.064Z,99.88
2023-04-27T05:37:58.058Z,99.83
2023-04-27T05:38:58.071Z,99.73
2023-04-27T05:39:58.026Z,99.73
2023-04-27T05:40:58.017Z,99.62
2023-04-27T05:41:58.077Z,99.62
2023-04-27T05:42:58.016Z,99.52
2023-04-27T05:43:58.023Z,99.52
2023-04-27T05:44:57.988Z,99.41
2023-04-27T05:45:58.018Z,99.52
2023-04-27T05:46:57.959Z,99.47
2023-04-27T05:47:57.988Z,99.37
2023-04-27T05:48:57.949Z,99.47
2023-04-27T05:49:57.951Z,99.47
2023-04-27T05:50:57.930Z,99.57
2023-04-27T05:51:57.916Z,99.68
2023-04-27T05:52:57.940Z,99.99
2023-04-27T05:53:57.920Z,99.99
2023-04-27T05:54:57.908Z,99.99
2023-04-27T05:55:57.887Z,99.99
2023-04-27T05:56:57.878Z,99.99
2023-04-27T05:58:07.054Z,99.99
2023-04-27T05:58:57.946Z,99.99
2023-04-27T05:59:57.831Z,99.99
2023-04-27T06:00:57.908Z,99.99
2023-04-27T06:01:57.893Z,99.99
2023-04-27T06:02:58.029Z,99.99
2023-04-27T06:03:57.871Z,99.99
2023-04-27T06:04:57.824Z,99.99
2023-04-27T06:05:59.069Z,99.99
2023-04-27T06:06:57.761Z,99.99
2023-04-27T06:07:57.732Z,99.99
2023-04-27T06:08:57.740Z,99.99
2023-04-27T06:09:57.733Z,99.99
2023-04-27T06:10:57.773Z,99.99
2023-04-27T06:11:57.708Z,99.99
2023-04-27T06:12:57.722Z,99.99
2023-04-27T06:13:57.692Z,99.99
2023-04-27T06:14:57.723Z,99.99
2023-04-27T06:15:57.724Z,99.99
2023-04-27T06:16:57.701Z,99.99
2023-04-27T06:17:57.652Z,99.99
2023-04-27T06:18:57.625Z,99.99
2023-04-27T06:19:57.644Z,99.99
2023-04-27T06:20:57.620Z,99.99
2023-04-27T06:21:57.605Z,99.99
2023-04-27T06:22:57.586Z,99.99
2023-04-27T06:23:57.618Z,99.99
2023-04-27T06:24:57.603Z,99.99
2023-04-27T06:25:57.590Z,99.99
2023-04-27T06:26:57.576Z,99.99
2023-04-27T06:27:57.794Z,99.99
2023-04-27T06:28:57.597Z,99.99
2023-04-27T06:29:57.541Z,99.99
2023-04-27T06:30:57.577Z,99.99
2023-04-27T06:31:57.578Z,99.86
2023-04-27T06:32:57.523Z,99.65
2023-04-27T06:33:57.495Z,99.61
2023-04-27T06:34:57.500Z,99.51
2023-04-27T06:35:57.453Z,99.40
2023-04-27T06:36:57.483Z,99.15
2023-04-27T06:37:57.425Z,98.00
2023-04-27T06:38:57.431Z,96.20
2023-04-27T06:39:57.425Z,94.64
2023-04-27T06:40:57.434Z,93.46
2023-04-27T06:41:57.466Z,92.94
2023-04-27T06:42:57.429Z,92.80
2023-04-27T06:43:58.697Z,93.00
2023-04-27T06:44:57.367Z,92.55
2023-04-27T06:45:57.365Z,92.03
2023-04-27T06:46:57.373Z,90.99
2023-04-27T06:47:57.381Z,90.53
2023-04-27T06:48:57.322Z,90.02
2023-04-27T06:49:57.321Z,88.43
2023-04-27T06:50:57.301Z,87.29
2023-04-27T06:51:57.316Z,86.73
2023-04-27T06:52:57.280Z,86.83
2023-04-27T06:53:57.303Z,87.04
2023-04-27T06:54:57.278Z,85.35
2023-04-27T06:55:57.239Z,84.31
2023-04-27T06:56:57.308Z,82.83
2023-04-27T06:57:57.324Z,83.14
2023-04-27T06:58:57.236Z,83.97
2023-04-27T06:59:57.223Z,82.89
2023-04-27T07:00:57.179Z,82.59
2023-04-27T07:01:57.281Z,83.06
2023-04-27T07:02:57.238Z,83.37
2023-04-27T07:03:57.331Z,81.51
2023-04-27T07:04:57.280Z,80.55
2023-04-27T07:05:57.202Z,78.80
2023-04-27T07:06:57.638Z,79.07
2023-04-27T07:07:57.119Z,77.42
2023-04-27T07:08:57.175Z,77.52
2023-04-27T07:09:57.092Z,77.69
2023-04-27T07:10:57.156Z,77.48
2023-04-27T07:11:57.080Z,76.53
2023-04-27T07:12:57.083Z,76.79
2023-04-27T07:13:57.134Z,75.15
2023-04-27T07:14:57.102Z,73.19
2023-04-27T07:15:57.109Z,73.40
2023-04-27T07:16:57.061Z,71.03
2023-04-27T07:17:57.095Z,72.24
2023-04-27T07:18:57.055Z,71.20
2023-04-27T07:19:57.028Z,70.90
2023-04-27T07:20:57.005Z,70.07
2023-04-27T07:21:56.973Z,69.97
2023-04-27T07:22:56.982Z,71.17
2023-04-27T07:23:56.953Z,70.45
2023-04-27T07:24:56.971Z,69.80
2023-04-27T07:25:56.938Z,70.62
2023-04-27T07:26:56.947Z,70.18
2023-04-27T07:27:56.976Z,69.84
2023-04-27T07:28:56.910Z,68.27
2023-04-27T07:29:56.933Z,67.03
2023-04-27T07:30:56.924Z,66.16
2023-04-27T07:31:56.920Z,63.90
2023-04-27T07:32:56.912Z,63.46
2023-04-27T07:33:56.851Z,61.10
2023-04-27T07:34:56.837Z,61.18
2023-04-27T07:35:56.870Z,60.76
2023-04-27T07:36:56.808Z,61.35
2023-04-27T07:37:56.812Z,61.15
2023-04-27T07:38:56.785Z,60.81
2023-04-27T07:39:56.809Z,60.40
2023-04-27T07:40:56.790Z,61.11
2023-04-27T07:41:56.784Z,59.07
2023-04-27T07:42:56.736Z,59.09
2023-04-27T07:43:56.757Z,59.92
2023-04-27T07:44:56.725Z,59.07
2023-04-27T07:45:56.813Z,59.20
2023-04-27T07:46:56.738Z,59.61
2023-04-27T07:47:58.774Z,60.22
2023-04-27T07:48:56.718Z,60.02
2023-04-27T07:49:56.691Z,59.38
2023-04-27T07:50:56.651Z,59.17
2023-04-27T07:51:56.659Z,59.38
2023-04-27T07:52:56.660Z,60.60
2023-04-27T07:53:56.680Z,59.27
2023-04-27T07:54:56.624Z,57.81
2023-04-27T07:55:56.694Z,58.22
2023-04-27T07:56:56.585Z,59.63
2023-04-27T07:57:56.733Z,58.09
2023-04-27T07:58:56.622Z,56.43
2023-04-27T07:59:56.567Z,56.74
2023-04-27T08:00:56.574Z,55.62
2023-04-27T08:02:07.001Z,55.10
2023-04-27T08:02:57.053Z,54.90
2023-04-27T08:03:56.822Z,56.33
2023-04-27T08:04:56.900Z,55.51
2023-04-27T08:05:56.673Z,55.69
2023-04-27T08:06:56.705Z,55.69
2023-04-27T08:07:56.555Z,53.16
2023-04-27T08:08:56.477Z,53.47
2023-04-27T08:09:56.463Z,53.36
2023-04-27T08:10:56.501Z,53.23
2023-04-27T08:11:56.462Z,53.16
2023-04-27T08:12:56.499Z,54.77
2023-04-27T08:13:56.453Z,54.80
2023-04-27T08:14:56.417Z,54.87
2023-04-27T08:15:56.438Z,55.28
2023-04-27T08:16:56.547Z,55.49
2023-04-27T08:17:56.437Z,55.38
2023-04-27T08:18:57.991Z,55.08
2023-04-27T08:19:56.357Z,56.10
2023-04-27T08:20:56.349Z,55.97
2023-04-27T08:21:56.346Z,57.60
2023-04-27T08:22:56.329Z,58.62
2023-04-27T08:23:56.424Z,55.97
2023-04-27T08:24:56.388Z,55.66
2023-04-27T08:25:56.318Z,54.85
2023-04-27T08:26:56.311Z,53.80
2023-04-27T08:27:56.323Z,53.59
2023-04-27T08:28:56.255Z,53.29
2023-04-27T08:29:56.291Z,52.88
2023-04-27T08:30:56.323Z,53.19
2023-04-27T08:31:57.030Z,53.59
2023-04-27T08:32:56.282Z,53.39
2023-04-27T08:33:56.250Z,54.21
2023-04-27T08:34:56.199Z,54.11
2023-04-27T08:35:56.271Z,54.41
2023-04-27T08:36:56.229Z,53.49
2023-04-27T08:37:56.206Z,52.88
2023-04-27T08:38:56.194Z,53.70
2023-04-27T08:39:56.183Z,53.08
2023-04-27T08:40:56.167Z,50.43
2023-04-27T08:41:56.144Z,50.02
2023-04-27T08:42:56.143Z,51.04
2023-04-27T08:43:57.351Z,49.92
2023-04-27T08:44:56.129Z,49.51
2023-04-27T08:45:56.116Z,50.63
2023-04-27T08:46:56.072Z,52.47
2023-04-27T08:47:56.119Z,53.29
2023-04-27T08:48:56.148Z,53.08
2023-04-27T08:49:56.086Z,53.80
2023-04-27T08:50:56.030Z,51.02
2023-04-27T08:51:56.042Z,49.18
2023-04-27T08:52:56.053Z,47.75
2023-04-27T08:53:56.014Z,47.94
2023-04-27T08:54:56.050Z,48.75
2023-04-27T08:55:55.990Z,47.02
2023-04-27T08:56:55.966Z,46.61
2023-04-27T08:57:56.021Z,48.03
2023-04-27T08:58:55.972Z,48.55
2023-04-27T08:59:56.060Z,51.30
2023-04-27T09:00:56.006Z,50.99
2023-04-27T09:01:56.028Z,47.63
2023-04-27T09:02:56.108Z,46.81
2023-04-27T09:03:56.291Z,46.51
2023-04-27T09:04:56.097Z,49.26
2023-04-27T09:06:04.334Z,49.37
2023-04-27T09:06:55.855Z,52.53
2023-04-27T09:07:55.949Z,51.10
2023-04-27T09:08:55.852Z,50.08
2023-04-27T09:09:55.858Z,50.69
2023-04-27T09:10:55.834Z,49.16
2023-04-27T09:11:55.863Z,45.69
2023-04-27T09:12:55.864Z,45.31
2023-04-27T09:13:55.812Z,44.49
2023-04-27T09:14:55.786Z,45.63
2023-04-27T09:15:55.786Z,49.30
2023-04-27T09:16:55.791Z,45.53
2023-04-27T09:17:55.813Z,46.86
2023-04-27T09:18:55.749Z,46.86
2023-04-27T09:19:55.748Z,46.53
2023-04-27T09:20:55.697Z,45.61
2023-04-27T09:21:55.741Z,46.22
2023-04-27T09:22:55.721Z,44.69
2023-04-27T09:23:55.678Z,46.22
2023-04-27T09:24:55.937Z,46.53
2023-04-27T09:25:55.912Z,47.14
2023-04-27T09:26:55.668Z,48.98
2023-04-27T09:27:55.646Z,49.46
2023-04-27T09:28:55.713Z,47.02
2023-04-27T09:29:55.618Z,48.55
2023-04-27T09:30:55.599Z,45.89
2023-04-27T09:31:55.639Z,43.24
2023-04-27T09:32:55.624Z,43.98
2023-04-27T09:33:55.580Z,43.47
2023-04-27T09:34:55.549Z,43.57
2023-04-27T09:35:55.577Z,45.08
2023-04-27T09:36:55.585Z,46.30
2023-04-27T09:37:55.575Z,42.83
2023-04-27T09:38:55.529Z,40.59
2023-04-27T09:39:55.524Z,41.41
2023-04-27T09:40:55.509Z,43.53
2023-04-27T09:41:55.517Z,44.34
2023-04-27T09:42:55.487Z,45.67
2023-04-27T09:43:57.685Z,45.36
2023-04-27T09:44:55.484Z,43.53
2023-04-27T09:45:55.483Z,43.30
2023-04-27T09:46:55.450Z,41.98
2023-04-27T09:47:55.492Z,42.69
2023-04-27T09:48:55.408Z,40.96
2023-04-27T09:49:55.582Z,40.66
2023-04-27T09:50:56.153Z,42.69
2023-04-27T09:51:55.570Z,41.35
2023-04-27T09:52:55.475Z,42.29
2023-04-27T09:53:55.455Z,43.41
2023-04-27T09:54:55.397Z,41.66
2023-04-27T09:55:55.361Z,42.77
2023-04-27T09:56:55.375Z,42.16
2023-04-27T09:57:55.312Z,41.96
2023-04-27T09:58:55.343Z,40.41
2023-04-27T09:59:55.300Z,40.11
2023-04-27T10:00:55.349Z,40.62
2023-04-27T10:01:55.299Z,43.87
2023-04-27T10:02:55.340Z,41.94
2023-04-27T10:03:55.427Z,42.35
2023-04-27T10:04:55.391Z,42.76
2023-04-27T10:05:55.260Z,42.83
2023-04-27T10:06:57.218Z,42.02
2023-04-27T10:07:55.228Z,40.80
2023-04-27T10:08:55.213Z,44.26
2023-04-27T10:09:55.219Z,41.31
2023-04-27T10:10:55.181Z,39.17
2023-04-27T10:11:55.191Z,40.70
2023-04-27T10:12:55.164Z,40.80
2023-04-27T10:13:55.331Z,42.94
2023-04-27T10:14:55.156Z,41.52
2023-04-27T10:15:55.126Z,41.74
2023-04-27T10:16:55.125Z,42.63
2023-04-27T10:17:55.155Z,40.91
2023-04-27T10:18:55.103Z,41.61
2023-04-27T10:19:57.379Z,41.72
2023-04-27T10:20:55.137Z,42.53
2023-04-27T10:21:55.131Z,42.86
2023-04-27T10:22:55.146Z,43.85
2023-04-27T10:23:55.095Z,43.67
2023-04-27T10:24:55.043Z,43.85
2023-04-27T10:25:55.037Z,43.24
2023-04-27T10:26:55.029Z,42.63
2023-04-27T10:27:55.038Z,43.73
2023-04-27T10:28:54.993Z,43.65
2023-04-27T10:29:54.998Z,44.77
2023-04-27T10:30:54.987Z,42.61
2023-04-27T10:31:54.987Z,43.84
2023-04-27T10:32:55.032Z,41.99
2023-04-27T10:33:54.956Z,41.99
2023-04-27T10:34:54.953Z,43.30
2023-04-27T10:35:54.946Z,42.19
2023-04-27T10:36:54.920Z,41.99
2023-04-27T10:37:54.927Z,43.10
2023-04-27T10:38:54.875Z,40.97
2023-04-27T10:39:55.068Z,38.51
2023-04-27T10:40:54.907Z,39.42
2023-04-27T10:41:54.880Z,40.54
2023-04-27T10:42:54.861Z,39.73
2023-04-27T10:43:54.854Z,39.61
2023-04-27T10:44:54.830Z,39.12
2023-04-27T10:45:54.838Z,40.95
2023-04-27T10:46:55.044Z,41.15
2023-04-27T10:47:54.829Z,44.22
2023-04-27T10:48:55.409Z,41.99
2023-04-27T10:49:55.842Z,43.00
2023-04-27T10:50:55.093Z,43.49
2023-04-27T10:51:54.780Z,41.58
2023-04-27T10:52:54.820Z,44.22
2023-04-27T10:53:54.730Z,44.73
2023-04-27T10:54:54.709Z,42.69
2023-04-27T10:55:54.720Z,45.46
2023-04-27T10:56:54.707Z,47.70
2023-04-27T10:57:54.722Z,45.15
2023-04-27T10:58:54.675Z,45.14
2023-04-27T10:59:54.692Z,43.51
2023-04-27T11:00:54.657Z,43.51
2023-04-27T11:01:54.711Z,42.80
2023-04-27T11:02:54.762Z,42.90
2023-04-27T11:03:54.659Z,42.39
2023-04-27T11:04:54.655Z,43.38
2023-04-27T11:05:55.186Z,42.88
2023-04-27T11:06:54.591Z,44.71
2023-04-27T11:07:54.580Z,45.40
2023-04-27T11:08:54.555Z,43.16
2023-04-27T11:09:54.600Z,43.06
2023-04-27T11:10:54.613Z,39.89
2023-04-27T11:11:54.538Z,40.40
2023-04-27T11:12:54.537Z,38.78
2023-04-27T11:13:54.593Z,39.08
2023-04-27T11:14:54.498Z,39.59
2023-04-27T11:15:54.545Z,38.57
2023-04-27T11:16:54.472Z,40.09
2023-04-27T11:17:54.523Z,39.51
2023-04-27T11:18:54.489Z,39.91
2023-04-27T11:19:54.460Z,37.98
2023-04-27T11:20:54.538Z,37.78
2023-04-27T11:21:54.430Z,37.37
2023-04-27T11:22:54.415Z,38.39
2023-04-27T11:23:54.435Z,42.55
2023-04-27T11:24:54.390Z,41.46
2023-04-27T11:25:54.433Z,43.49
2023-04-27T11:26:54.384Z,42.08
2023-04-27T11:27:54.453Z,40.58
2023-04-27T11:28:54.365Z,40.17
2023-04-27T11:29:54.342Z,43.73
2023-04-27T11:30:54.363Z,40.68
2023-04-27T11:31:54.331Z,42.82
2023-04-27T11:32:54.330Z,41.88
2023-04-27T11:33:56.096Z,43.20
2023-04-27T11:34:55.527Z,43.69
2023-04-27T11:35:54.293Z,40.83
2023-04-27T11:36:58.662Z,39.39
2023-04-27T11:37:54.331Z,38.27
2023-04-27T11:38:54.320Z,39.06
2023-04-27T11:39:54.242Z,38.45
2023-04-27T11:40:54.295Z,38.86
2023-04-27T11:41:54.202Z,38.35
2023-04-27T11:42:54.237Z,38.96
2023-04-27T11:43:54.201Z,39.87
2023-04-27T11:44:54.203Z,38.05
2023-04-27T11:45:54.169Z,37.64
2023-04-27T11:46:54.206Z,38.56
2023-04-27T11:47:54.217Z,37.95
2023-04-27T11:48:54.136Z,38.86
2023-04-27T11:49:54.117Z,38.34
2023-04-27T11:50:54.128Z,36.71
2023-04-27T11:51:54.127Z,38.74
2023-04-27T11:52:54.118Z,38.23
2023-04-27T11:53:54.075Z,38.03
2023-04-27T11:54:54.065Z,36.41
2023-04-27T11:55:54.073Z,36.91
2023-04-27T11:56:54.059Z,38.62
2023-04-27T11:57:54.052Z,37.20
2023-04-27T11:58:54.033Z,35.68
2023-04-27T11:59:54.143Z,35.68
2023-04-27T12:00:54.007Z,37.51
2023-04-27T12:01:54.013Z,37.99
2023-04-27T12:02:54.299Z,36.27
2023-04-27T12:03:54.121Z,37.99
2023-04-27T12:04:54.181Z,37.20
2023-04-27T12:05:54.041Z,38.21
2023-04-27T12:06:53.942Z,38.52
2023-04-27T12:07:53.925Z,40.04
2023-04-27T12:08:53.919Z,38.62
2023-04-27T12:09:53.933Z,38.01
2023-04-27T12:10:53.952Z,36.69
2023-04-27T12:11:53.889Z,39.03
2023-04-27T12:12:53.885Z,40.14
2023-04-27T12:13:53.847Z,39.13
2023-04-27T12:14:53.872Z,41.56
2023-04-27T12:15:53.859Z,39.84
2023-04-27T12:16:53.946Z,38.23
2023-04-27T12:17:53.833Z,40.26
2023-04-27T12:18:53.803Z,41.07
2023-04-27T12:19:53.791Z,43.20
2023-04-27T12:20:53.830Z,37.74
2023-04-27T12:21:53.761Z,41.50
2023-04-27T12:22:53.770Z,42.31
2023-04-27T12:23:53.761Z,41.78
2023-04-27T12:24:53.743Z,42.17
2023-04-27T12:25:53.730Z,39.43
2023-04-27T12:26:53.734Z,38.91
2023-04-27T12:27:53.705Z,38.68
2023-04-27T12:28:53.732Z,37.57
2023-04-27T12:29:53.684Z,38.08
2023-04-27T12:30:53.756Z,39.29
2023-04-27T12:31:53.658Z,38.57
2023-04-27T12:32:53.722Z,39.37
2023-04-27T12:33:53.659Z,39.36
2023-04-27T12:34:53.651Z,38.65
2023-04-27T12:35:53.628Z,39.36
2023-04-27T12:36:53.610Z,35.92
2023-04-27T12:37:53.603Z,36.72
2023-04-27T12:38:53.632Z,37.45
2023-04-27T12:39:53.613Z,41.54
2023-04-27T12:40:53.571Z,41.66
2023-04-27T12:41:53.574Z,38.72
2023-04-27T12:42:53.545Z,38.01
2023-04-27T12:43:53.539Z,38.52
2023-04-27T12:44:53.533Z,38.21
2023-04-27T12:45:53.522Z,38.42
2023-04-27T12:46:53.566Z,37.38
2023-04-27T12:48:02.676Z,37.08
2023-04-27T12:48:53.566Z,37.59
2023-04-27T12:49:53.496Z,37.79
2023-04-27T12:50:53.482Z,37.69
2023-04-27T12:51:53.472Z,38.89